createdAt,value
2023-05-24T00:02:17.320Z,12.13
2023-05-24T00:05:03.001Z,13.00
2023-05-24T00:07:49.311Z,12.05
2023-05-24T00:10:34.615Z,13.48
2023-05-24T00:13:20.502Z,11.38
2023-05-24T00:16:06.210Z,13.10
2023-05-24T00:18:52.346Z,13.20
2023-05-24T00:21:38.101Z,13.70
2023-05-24T00:24:24.106Z,12.73
2023-05-24T00:27:11.898Z,12.75
2023-05-24T00:29:58.255Z,11.82
2023-05-24T00:32:43.760Z,12.10
2023-05-24T00:35:29.818Z,12.23
2023-05-24T00:38:15.915Z,13.45
2023-05-24T00:41:02.098Z,12.02
2023-05-24T00:43:48.016Z,11.80
2023-05-24T00:46:34.116Z,12.55
2023-05-24T00:49:19.669Z,12.98
2023-05-24T00:52:06.554Z,12.63
2023-05-24T00:54:52.134Z,12.65
2023-05-24T00:57:38.285Z,13.05
2023-05-24T01:00:24.332Z,12.93
2023-05-24T01:03:10.392Z,11.68
2023-05-24T01:06:02.742Z,11.75
2023-05-24T01:09:19.985Z,11.27
2023-05-24T01:12:35.959Z,12.88
2023-05-24T01:15:48.985Z,10.95
2023-05-24T01:18:55.577Z,11.60
2023-05-24T01:21:56.332Z,11.30
2023-05-24T01:25:03.766Z,11.80
2023-05-24T01:27:50.583Z,12.20
2023-05-24T01:30:36.677Z,11.52
2023-05-24T01:33:22.460Z,12.18
2023-05-24T01:36:08.725Z,11.95
2023-05-24T01:38:54.524Z,11.60
2023-05-24T01:41:47.173Z,11.07
2023-05-24T01:44:37.595Z,10.52
2023-05-24T01:47:33.189Z,10.13
2023-05-24T01:50:32.499Z,9.52
2023-05-24T01:53:19.980Z,9.80
2023-05-24T01:56:06.785Z,8.77
2023-05-24T01:58:53.346Z,9.05
2023-05-24T02:01:39.898Z,9.38
2023-05-24T02:04:25.964Z,9.07
2023-05-24T02:07:12.176Z,8.85
2023-05-24T02:09:57.715Z,8.00
2023-05-24T02:12:43.612Z,8.90
2023-05-24T02:15:30.636Z,9.27
2023-05-24T02:18:18.738Z,9.15
2023-05-24T02:21:04.451Z,9.95
2023-05-24T02:23:50.375Z,9.23
2023-05-24T02:26:36.317Z,9.63
2023-05-24T02:29:23.189Z,9.60
2023-05-24T02:32:08.893Z,10.10
2023-05-24T02:34:54.686Z,10.90
2023-05-24T02:37:41.053Z,11.00
2023-05-24T02:40:26.963Z,11.25
2023-05-24T02:43:12.347Z,10.82
2023-05-24T02:45:58.243Z,10.82
2023-05-24T02:48:43.631Z,10.68
2023-05-24T02:51:29.794Z,11.23
2023-05-24T02:54:17.759Z,10.35
2023-05-24T02:57:04.133Z,10.38
2023-05-24T02:59:50.165Z,10.00
2023-05-24T03:02:38.635Z,10.70
2023-05-24T03:05:24.902Z,11.15
2023-05-24T03:08:10.945Z,10.23
2023-05-24T03:10:56.779Z,11.10
2023-05-24T03:13:42.583Z,10.75
2023-05-24T03:16:29.511Z,12.02
2023-05-24T03:19:17.394Z,10.90
2023-05-24T03:22:03.438Z,10.77
2023-05-24T03:24:50.100Z,10.65
2023-05-24T03:27:36.721Z,10.75
2023-05-24T03:30:23.150Z,10.07
2023-05-24T03:33:12.768Z,9.55
2023-05-24T03:35:59.114Z,9.30
2023-05-24T03:38:45.161Z,10.50
2023-05-24T03:41:31.354Z,8.65
2023-05-24T03:44:19.293Z,9.25
2023-05-24T03:47:05.590Z,9.80
2023-05-24T03:49:51.579Z,9.63
2023-05-24T03:52:37.383Z,8.95
2023-05-24T03:55:22.795Z,10.07
2023-05-24T03:58:10.784Z,7.75
2023-05-24T04:00:56.998Z,7.80
2023-05-24T04:03:46.053Z,8.85
2023-05-24T04:06:31.842Z,8.10
2023-05-24T04:09:18.339Z,8.55
2023-05-24T04:12:04.179Z,7.75
2023-05-24T04:14:50.066Z,7.43
2023-05-24T04:17:35.996Z,6.75
2023-05-24T04:20:27.220Z,6.95
2023-05-24T04:25:58.901Z,6.60
2023-05-24T04:28:46.901Z,7.10
2023-05-24T04:31:34.369Z,7.10
2023-05-24T04:34:22.413Z,6.68
2023-05-24T04:37:09.562Z,5.80
2023-05-24T04:39:55.869Z,6.57
2023-05-24T04:42:42.772Z,6.25
2023-05-24T04:45:30.370Z,6.05
2023-05-24T04:48:16.705Z,5.97
2023-05-24T04:51:02.903Z,5.40
2023-05-24T04:53:49.233Z,6.05
2023-05-24T04:56:38.802Z,5.32
2023-05-24T04:59:25.060Z,6.07
2023-05-24T05:02:10.769Z,5.05
2023-05-24T05:04:56.818Z,5.28
2023-05-24T05:07:42.282Z,5.03
2023-05-24T05:10:28.608Z,5.40
2023-05-24T05:13:14.273Z,4.72
2023-05-24T05:16:00.086Z,4.82
2023-05-24T05:18:46.259Z,5.20
2023-05-24T05:21:36.493Z,5.55
2023-05-24T05:24:22.131Z,5.25
2023-05-24T05:27:09.314Z,4.78
2023-05-24T05:29:57.554Z,4.38
2023-05-24T05:32:43.970Z,5.28
2023-05-24T05:35:30.142Z,4.88
2023-05-24T05:38:16.360Z,5.18
2023-05-24T05:41:02.275Z,4.97
2023-05-24T05:43:48.380Z,4.90
2023-05-24T05:46:33.836Z,4.55
2023-05-24T05:49:20.419Z,4.55
2023-05-24T05:52:06.371Z,5.65
2023-05-24T05:54:52.264Z,4.78
2023-05-24T05:57:38.013Z,4.32
2023-05-24T06:00:24.024Z,3.42
2023-05-24T06:03:09.902Z,4.40
2023-05-24T06:05:55.949Z,4.20
2023-05-24T06:08:41.932Z,4.43
2023-05-24T06:11:28.111Z,4.07
2023-05-24T06:14:18.234Z,4.78
2023-05-24T06:19:55.176Z,3.95
2023-05-24T06:22:42.758Z,3.85
2023-05-24T06:25:38.802Z,4.00
2023-05-24T06:28:24.591Z,4.85
2023-05-24T06:31:10.319Z,4.00
2023-05-24T06:34:03.293Z,4.85
2023-05-24T06:36:51.594Z,5.53
2023-05-24T06:39:37.920Z,4.28
2023-05-24T06:42:23.518Z,3.80
2023-05-24T06:45:11.204Z,4.35
2023-05-24T06:47:57.238Z,4.40
2023-05-24T06:50:44.065Z,4.25
2023-05-24T06:53:29.968Z,4.22
2023-05-24T06:56:16.688Z,3.92
2023-05-24T06:59:02.579Z,3.53
2023-05-24T07:01:51.701Z,4.22
2023-05-24T07:04:37.749Z,3.80
2023-05-24T07:07:23.933Z,3.85
2023-05-24T07:10:10.816Z,3.85
2023-05-24T07:12:57.013Z,3.65
2023-05-24T07:15:42.823Z,3.50
2023-05-24T07:18:30.157Z,3.90
2023-05-24T07:21:16.089Z,3.03
2023-05-24T07:24:04.018Z,3.78
2023-05-24T07:26:51.124Z,4.55
2023-05-24T07:29:38.252Z,4.55
2023-05-24T07:32:24.672Z,3.80
2023-05-24T07:35:13.081Z,4.15
2023-05-24T07:37:58.510Z,4.25
2023-05-24T07:40:44.679Z,4.63
2023-05-24T07:43:30.390Z,5.20
2023-05-24T07:46:16.439Z,4.63
2023-05-24T07:49:02.468Z,4.47
2023-05-24T07:51:48.996Z,4.55
2023-05-24T07:54:34.391Z,4.03
2023-05-24T07:57:20.345Z,4.55
2023-05-24T08:00:14.637Z,4.18
2023-05-24T08:03:01.093Z,3.97
2023-05-24T08:05:47.104Z,4.85
2023-05-24T08:08:33.736Z,4.28
2023-05-24T08:11:19.663Z,5.53
2023-05-24T08:14:06.029Z,5.00
2023-05-24T08:16:51.569Z,4.72
2023-05-24T08:19:37.929Z,5.50
2023-05-24T08:22:23.449Z,5.65
2023-05-24T08:25:10.822Z,5.70
2023-05-24T08:27:57.792Z,5.25
2023-05-24T08:30:43.934Z,4.82
2023-05-24T08:33:29.990Z,5.28
2023-05-24T08:36:17.662Z,5.32
2023-05-24T08:39:04.940Z,5.70
2023-05-24T08:42:07.347Z,5.13
2023-05-24T08:45:15.023Z,5.18
2023-05-24T08:48:01.618Z,5.65
2023-05-24T08:50:47.681Z,5.70
2023-05-24T08:53:33.773Z,5.93
2023-05-24T08:56:19.744Z,5.30
2023-05-24T08:59:06.561Z,6.45
2023-05-24T09:01:54.586Z,5.88
2023-05-24T09:04:41.764Z,6.07
2023-05-24T09:07:27.752Z,5.00
2023-05-24T09:10:13.896Z,6.22
2023-05-24T09:13:02.910Z,5.72
2023-05-24T09:15:48.994Z,6.03
2023-05-24T09:18:35.174Z,6.38
2023-05-24T09:21:22.345Z,5.78
2023-05-24T09:24:08.496Z,6.82
2023-05-24T09:26:54.560Z,5.70
2023-05-24T09:29:41.426Z,5.68
2023-05-24T09:32:28.767Z,5.97
2023-05-24T09:35:14.326Z,5.75
2023-05-24T09:38:00.584Z,6.28
2023-05-24T09:40:46.986Z,5.43
2023-05-24T09:43:34.799Z,6.00
2023-05-24T09:46:21.618Z,5.82
2023-05-24T09:49:08.685Z,5.07
2023-05-24T09:51:54.889Z,5.57
2023-05-24T09:54:41.842Z,4.90
2023-05-24T09:57:28.240Z,5.68
2023-05-24T10:00:16.602Z,5.57
2023-05-24T10:03:04.744Z,5.38
2023-05-24T10:05:53.354Z,5.20
2023-05-24T10:08:39.177Z,4.50
2023-05-24T10:11:25.193Z,5.10
2023-05-24T10:14:11.150Z,5.35
2023-05-24T10:16:56.994Z,4.82
2023-05-24T10:19:42.885Z,5.88
2023-05-24T10:22:29.222Z,5.07
2023-05-24T10:25:21.872Z,5.82
2023-05-24T10:28:11.377Z,6.05
2023-05-24T10:31:13.089Z,5.57
2023-05-24T10:34:07.031Z,5.85
2023-05-24T10:36:53.342Z,4.57
2023-05-24T10:39:39.517Z,5.00
2023-05-24T10:42:26.387Z,4.47
2023-05-24T10:45:27.537Z,4.95
2023-05-24T10:48:13.370Z,4.30
2023-05-24T10:51:01.359Z,4.50
2023-05-24T10:53:47.376Z,4.53
2023-05-24T10:56:40.577Z,4.95
2023-05-24T10:59:35.163Z,5.20
2023-05-24T11:02:21.113Z,5.35
2023-05-24T11:05:07.597Z,5.75
2023-05-24T11:07:59.512Z,5.85
2023-05-24T11:10:45.304Z,5.68
2023-05-24T11:13:32.803Z,5.40
2023-05-24T11:16:37.154Z,5.30
2023-05-24T11:19:37.009Z,5.35
2023-05-24T11:22:25.544Z,6.70
2023-05-24T11:25:12.900Z,6.38
2023-05-24T11:27:58.944Z,5.80
2023-05-24T11:30:47.238Z,6.40
2023-05-24T11:33:33.273Z,6.72
2023-05-24T11:36:20.093Z,7.10
2023-05-24T11:39:08.403Z,6.82
2023-05-24T11:41:54.657Z,7.10
2023-05-24T11:44:40.711Z,6.45
2023-05-24T11:47:27.104Z,6.90
2023-05-24T11:50:16.149Z,6.68
2023-05-24T11:53:03.833Z,7.32
2023-05-24T11:55:49.325Z,6.88
2023-05-24T11:58:45.859Z,7.55
2023-05-24T12:01:31.741Z,6.78
2023-05-24T12:04:17.649Z,6.95
2023-05-24T12:07:03.689Z,7.82
2023-05-24T12:09:50.670Z,6.75
2023-05-24T12:12:45.684Z,6.90
2023-05-24T12:15:32.407Z,6.43
2023-05-24T12:18:21.722Z,6.03
2023-05-24T12:21:11.337Z,6.63
2023-05-24T12:23:57.124Z,6.37
2023-05-24T12:26:47.638Z,6.50
2023-05-24T12:32:24.033Z,8.10
2023-05-24T12:35:11.417Z,7.07
2023-05-24T12:38:01.018Z,7.65
2023-05-24T12:40:51.964Z,7.38
2023-05-24T12:43:51.349Z,6.97
2023-05-24T12:46:37.036Z,6.80
2023-05-24T12:49:24.460Z,6.55
2023-05-24T12:52:12.418Z,7.88
2023-05-24T12:54:58.765Z,7.38
2023-05-24T12:57:44.901Z,6.85
2023-05-24T13:00:31.329Z,6.97
2023-05-24T13:03:16.735Z,7.20
2023-05-24T13:06:03.016Z,7.38
2023-05-24T13:08:48.875Z,6.80
2023-05-24T13:11:35.281Z,6.90
2023-05-24T13:14:21.403Z,7.72
2023-05-24T13:17:07.878Z,8.90
2023-05-24T13:19:53.434Z,8.18
2023-05-24T13:22:39.905Z,7.47
2023-05-24T13:25:26.627Z,9.40
2023-05-24T13:28:12.370Z,8.00
2023-05-24T13:30:58.802Z,9.32
2023-05-24T13:33:45.109Z,10.00
2023-05-24T13:36:30.758Z,9.38
2023-05-24T13:39:16.953Z,9.57
2023-05-24T13:42:02.970Z,9.02
2023-05-24T13:44:49.083Z,8.73
2023-05-24T13:47:39.875Z,11.77
2023-05-24T13:50:27.173Z,10.35
2023-05-24T13:53:13.589Z,10.98
2023-05-24T13:56:00.880Z,9.57
2023-05-24T13:58:46.651Z,9.93
2023-05-24T14:01:33.610Z,9.32
2023-05-24T14:04:19.800Z,10.02
2023-05-24T14:07:08.103Z,10.50
2023-05-24T14:09:53.656Z,9.10
2023-05-24T14:12:39.588Z,11.52
2023-05-24T14:15:25.016Z,8.30
2023-05-24T14:18:11.006Z,10.02
2023-05-24T14:20:56.765Z,9.75
2023-05-24T14:23:43.038Z,9.93
2023-05-24T14:26:28.613Z,8.25
2023-05-24T14:29:14.693Z,8.68
2023-05-24T14:32:00.488Z,9.55
2023-05-24T14:34:46.934Z,9.50
2023-05-24T14:37:32.495Z,9.63
2023-05-24T14:40:19.963Z,10.23
2023-05-24T14:43:07.016Z,8.40
2023-05-24T14:45:52.911Z,9.02
2023-05-24T14:48:41.521Z,8.48
2023-05-24T14:51:27.672Z,9.20
2023-05-24T14:54:13.664Z,8.85
2023-05-24T14:57:00.130Z,8.85
2023-05-24T14:59:45.891Z,8.77
2023-05-24T15:02:31.766Z,9.35
2023-05-24T15:05:17.950Z,10.13
2023-05-24T15:08:05.059Z,10.00
2023-05-24T15:10:51.105Z,8.80
2023-05-24T15:13:38.463Z,10.20
2023-05-24T15:16:27.207Z,9.10
2023-05-24T15:19:13.456Z,8.85
2023-05-24T15:21:59.342Z,9.38
2023-05-24T15:24:45.488Z,9.02
2023-05-24T15:27:30.919Z,9.68
2023-05-24T15:30:19.260Z,9.90
2023-05-24T15:33:05.029Z,10.80
2023-05-24T15:35:51.276Z,10.30
2023-05-24T15:38:38.776Z,8.70
2023-05-24T15:41:25.190Z,9.93
2023-05-24T15:44:11.053Z,10.32
2023-05-24T15:46:57.059Z,10.10
2023-05-24T15:49:43.189Z,10.45
2023-05-24T15:52:29.004Z,11.25
2023-05-24T15:55:15.253Z,10.77
2023-05-24T15:58:01.986Z,10.70
2023-05-24T16:00:49.067Z,11.13
2023-05-24T16:03:44.815Z,9.32
2023-05-24T16:06:40.677Z,11.20
2023-05-24T16:09:30.219Z,11.25
2023-05-24T16:12:17.090Z,10.35
2023-05-24T16:15:04.350Z,10.48
2023-05-24T16:17:50.895Z,12.43
2023-05-24T16:20:37.134Z,9.88
2023-05-24T16:23:25.874Z,9.90
2023-05-24T16:26:12.781Z,10.97
2023-05-24T16:28:59.059Z,9.10
2023-05-24T16:31:46.334Z,11.20
2023-05-24T16:34:41.450Z,10.73
2023-05-24T16:37:38.942Z,10.93
2023-05-24T16:40:25.042Z,10.43
2023-05-24T16:43:11.575Z,10.70
2023-05-24T16:45:57.693Z,9.65
2023-05-24T16:48:44.593Z,12.52
2023-05-24T16:51:30.863Z,11.05
2023-05-24T16:54:17.638Z,10.27
2023-05-24T16:57:04.110Z,10.45
2023-05-24T16:59:51.196Z,11.60
2023-05-24T17:02:37.360Z,10.20
2023-05-24T17:05:25.952Z,12.30
2023-05-24T17:08:12.796Z,12.43
2023-05-24T17:10:59.369Z,11.48
2023-05-24T17:13:54.000Z,10.05
2023-05-24T17:46:25.159Z,11.80
2023-05-24T17:49:14.191Z,10.98
2023-05-24T17:52:03.416Z,11.95
2023-05-24T17:59:37.521Z,10.27
2023-05-24T18:14:19.687Z,10.57
2023-05-24T18:17:09.497Z,12.10
2023-05-24T18:24:18.196Z,10.93
2023-05-24T18:43:17.746Z,12.15
2023-05-24T18:46:05.971Z,13.70
2023-05-24T18:54:01.149Z,11.98
2023-05-24T18:56:47.863Z,10.57
2023-05-24T18:59:34.658Z,11.30
2023-05-24T19:02:21.130Z,10.80
2023-05-24T19:05:11.201Z,10.30
2023-05-24T19:07:57.677Z,10.88
2023-05-24T19:10:49.785Z,11.05
2023-05-24T19:13:36.171Z,9.90
2023-05-24T19:16:22.891Z,10.77
2023-05-24T19:19:11.368Z,10.15
2023-05-24T19:27:17.705Z,10.15
2023-05-24T19:30:05.672Z,10.25
2023-05-24T19:32:56.076Z,10.82
2023-05-24T19:41:11.611Z,10.82
2023-05-24T19:44:01.208Z,10.77
2023-05-24T21:28:37.772Z,9.65
2023-05-24T21:31:24.787Z,9.63
2023-05-24T21:45:14.611Z,9.52
2023-05-24T21:48:01.606Z,8.98
2023-05-24T22:01:42.512Z,9.38
2023-05-24T22:04:29.436Z,9.20
2023-05-24T22:18:11.441Z,10.13
2023-05-24T22:21:02.317Z,8.75
2023-05-24T22:23:50.271Z,8.93
2023-05-24T22:26:37.181Z,8.73
2023-05-24T22:40:23.531Z,8.77
2023-05-24T22:43:10.008Z,9.85
2023-05-24T22:45:56.920Z,7.60
2023-05-24T22:48:43.677Z,8.57
2023-05-24T22:51:30.386Z,7.85
2023-05-24T22:54:17.377Z,8.60
2023-05-24T23:23:54.093Z,7.63
2023-05-24T23:26:42.236Z,7.70
2023-05-24T23:29:28.527Z,7.63
2023-05-24T23:32:15.278Z,7.70
